Sault, France

9:32 AM CET on December 04, 2016 (GMT +0100)
D150 | | Change Station

Elev 1374 ft 44.03 °N, 5.20 °E | Updated 2 minutes ago

46.6 °F
Feels Like 47 °F
N
0.6
Wind Variable Wind from West
Gusts 1.2 mph

Today
High -- | Low -- °F
--% Chance of Precip.
Yesterday
High -- | Low -- °F
Precip. -- in
Pressure 30.15 in
Visibility -9999.0 miles
Clouds
Windchill 47 °F
Dew Point 37 °F
Humidity 69%
Rainfall 0.00 in
Snow Depth Not available.
7:56 AM 5:00 PM
Waxing Crescent, 21% visible
METAR LFMO 040800Z AUTO 00000KT 3700 BR NSC 01/00 Q1021
Pressure 30.15 in
Visibility -9999.0 miles
Clouds
Windchill 47 °F
Dew Point 37 °F
Humidity 69%
Rainfall 0.00 in
Snow Depth Not available.
7:56 AM 5:00 PM
Waxing Crescent, 21% visible
METAR LFMO 040800Z AUTO 00000KT 3700 BR NSC 01/00 Q1021

10-Day Weather Forecast

×

Almanac

Astronomy

Dec. 04, 2016 Rise Set
Actual Time
Civil Twilight
Nautical Twilight
Astronomical Twilight
Moon
Length of Visible Light
Length of Day
Tomorrow will be .
, % of the Moon is Illuminated

Today's Extremes

Country Highs Country Lows

Community

WunderPhotos

Upload Photos

1,955,587 photos uploaded!

WunderBlog® & News

Nearby

Air Quality

  Air Quality AQ Index Pollutant
Not available.

Snow Depth

Station Depth Elevation

Earthquake Activity

City Distance Mag. Time & Date
Minimum magnitude displayed is 2.5.

Coastal Water Temperatures

Place Temperature

Stations

Nearby Weather Stations

Station Location Temp. Windchill Dew Point Humidity Wind Precip. Elev Updated Type